sensor_id;sensor_type;location;lat;lon;timestamp;pressure;altitude;pressure_sealevel;temperature;humidity
50123;BME280;36021;48.670;6.184;2023-04-21T00:01:33;98540.13;;;8.22;100.00
50123;BME280;36021;48.670;6.184;2023-04-21T00:03:59;98540.88;;;8.32;100.00
50123;BME280;36021;48.670;6.184;2023-04-21T00:06:26;98544.03;;;8.45;100.00
50123;BME280;36021;48.670;6.184;2023-04-21T00:08:53;98527.53;;;8.45;100.00
50123;BME280;36021;48.670;6.184;2023-04-21T00:11:20;98526.75;;;8.44;100.00
50123;BME280;36021;48.670;6.184;2023-04-21T00:13:46;98527.50;;;8.50;100.00
50123;BME280;36021;48.670;6.184;2023-04-21T00:16:12;98515.94;;;8.53;100.00
50123;BME280;36021;48.670;6.184;2023-04-21T00:18:38;98515.63;;;8.54;100.00
50123;BME280;36021;48.670;6.184;2023-04-21T00:21:03;98522.41;;;8.62;100.00
50123;BME280;36021;48.670;6.184;2023-04-21T00:23:29;98518.22;;;8.64;100.00
50123;BME280;36021;48.670;6.184;2023-04-21T00:25:56;98518.53;;;8.63;100.00
50123;BME280;36021;48.670;6.184;2023-04-21T00:28:22;98523.34;;;8.52;100.00
50123;BME280;36021;48.670;6.184;2023-04-21T00:30:48;98518.56;;;8.39;100.00
50123;BME280;36021;48.670;6.184;2023-04-21T00:33:14;98512.56;;;8.37;100.00
50123;BME280;36021;48.670;6.184;2023-04-21T00:35:40;98505.94;;;8.14;100.00
50123;BME280;36021;48.670;6.184;2023-04-21T00:38:06;98509.44;;;8.20;100.00
50123;BME280;36021;48.670;6.184;2023-04-21T00:40:32;98509.25;;;8.11;100.00
50123;BME280;36021;48.670;6.184;2023-04-21T00:42:58;98503.78;;;8.11;100.00
50123;BME280;36021;48.670;6.184;2023-04-21T00:45:29;98511.94;;;8.16;100.00
50123;BME280;36021;48.670;6.184;2023-04-21T00:47:55;98507.78;;;8.19;100.00
50123;BME280;36021;48.670;6.184;2023-04-21T00:50:21;98507.69;;;8.29;100.00
50123;BME280;36021;48.670;6.184;2023-04-21T00:52:48;98511.44;;;8.14;100.00
50123;BME280;36021;48.670;6.184;2023-04-21T00:55:13;98510.72;;;8.04;100.00
50123;BME280;36021;48.670;6.184;2023-04-21T00:57:41;98507.41;;;8.02;100.00
50123;BME280;36021;48.670;6.184;2023-04-21T01:00:09;98504.63;;;8.07;100.00
50123;BME280;36021;48.670;6.184;2023-04-21T01:02:36;98514.44;;;8.13;100.00
50123;BME280;36021;48.670;6.184;2023-04-21T01:05:05;98516.31;;;8.17;100.00
50123;BME280;36021;48.670;6.184;2023-04-21T01:07:34;98504.81;;;8.15;100.00
50123;BME280;36021;48.670;6.184;2023-04-21T01:10:02;98499.50;;;8.00;100.00
50123;BME280;36021;48.670;6.184;2023-04-21T01:12:29;98497.00;;;8.04;100.00
50123;BME280;36021;48.670;6.184;2023-04-21T01:14:57;98503.47;;;8.13;100.00
50123;BME280;36021;48.670;6.184;2023-04-21T01:17:23;98514.22;;;8.09;100.00
50123;BME280;36021;48.670;6.184;2023-04-21T01:19:52;98506.97;;;8.18;100.00
50123;BME280;36021;48.670;6.184;2023-04-21T01:22:17;98501.03;;;8.11;100.00
50123;BME280;36021;48.670;6.184;2023-04-21T01:24:45;98496.63;;;8.10;100.00
50123;BME280;36021;48.670;6.184;2023-04-21T01:27:17;98494.47;;;8.07;100.00
50123;BME280;36021;48.670;6.184;2023-04-21T01:29:45;98497.97;;;8.13;100.00
50123;BME280;36021;48.670;6.184;2023-04-21T01:32:22;98491.66;;;8.12;100.00
50123;BME280;36021;48.670;6.184;2023-04-21T01:34:51;98498.50;;;8.15;100.00
50123;BME280;36021;48.670;6.184;2023-04-21T01:37:19;98497.81;;;8.04;100.00
50123;BME280;36021;48.670;6.184;2023-04-21T01:39:48;98493.41;;;8.03;100.00
50123;BME280;36021;48.670;6.184;2023-04-21T01:42:23;98495.53;;;7.88;100.00
50123;BME280;36021;48.670;6.184;2023-04-21T01:44:51;98486.94;;;7.94;100.00
50123;BME280;36021;48.670;6.184;2023-04-21T01:47:18;98489.44;;;7.91;100.00
50123;BME280;36021;48.670;6.184;2023-04-21T01:49:45;98488.63;;;7.90;100.00
50123;BME280;36021;48.670;6.184;2023-04-21T01:52:11;98492.13;;;7.96;100.00
50123;BME280;36021;48.670;6.184;2023-04-21T01:54:37;98481.25;;;7.85;100.00
50123;BME280;36021;48.670;6.184;2023-04-21T01:57:03;98484.31;;;7.84;100.00
50123;BME280;36021;48.670;6.184;2023-04-21T01:59:29;98490.97;;;7.78;100.00
50123;BME280;36021;48.670;6.184;2023-04-21T02:01:55;98488.38;;;7.86;100.00
50123;BME280;36021;48.670;6.184;2023-04-21T02:04:21;98489.56;;;7.80;100.00
50123;BME280;36021;48.670;6.184;2023-04-21T02:06:46;98481.94;;;7.72;100.00
50123;BME280;36021;48.670;6.184;2023-04-21T02:09:12;98481.66;;;7.74;100.00
50123;BME280;36021;48.670;6.184;2023-04-21T02:11:38;98473.78;;;7.67;100.00
50123;BME280;36021;48.670;6.184;2023-04-21T02:14:04;98476.63;;;7.57;100.00
50123;BME280;36021;48.670;6.184;2023-04-21T02:16:30;98469.78;;;7.55;100.00
50123;BME280;36021;48.670;6.184;2023-04-21T02:18:56;98474.78;;;7.48;100.00
50123;BME280;36021;48.670;6.184;2023-04-21T02:21:22;98477.03;;;7.41;100.00
50123;BME280;36021;48.670;6.184;2023-04-21T02:23:49;98470.94;;;7.49;100.00
50123;BME280;36021;48.670;6.184;2023-04-21T02:26:15;98485.25;;;7.41;100.00
50123;BME280;36021;48.670;6.184;2023-04-21T02:28:41;98476.22;;;7.40;100.00
50123;BME280;36021;48.670;6.184;2023-04-21T02:31:07;98478.97;;;7.40;100.00
50123;BME280;36021;48.670;6.184;2023-04-21T02:33:33;98483.56;;;7.16;100.00
50123;BME280;36021;48.670;6.184;2023-04-21T02:35:58;98484.72;;;7.05;100.00
50123;BME280;36021;48.670;6.184;2023-04-21T02:38:26;98476.19;;;7.11;100.00
50123;BME280;36021;48.670;6.184;2023-04-21T02:40:52;98472.94;;;7.09;100.00
50123;BME280;36021;48.670;6.184;2023-04-21T02:43:19;98462.47;;;7.16;100.00
50123;BME280;36021;48.670;6.184;2023-04-21T02:45:47;98472.78;;;7.29;100.00
50123;BME280;36021;48.670;6.184;2023-04-21T02:48:12;98475.22;;;7.31;100.00
50123;BME280;36021;48.670;6.184;2023-04-21T02:50:38;98466.47;;;7.29;100.00
50123;BME280;36021;48.670;6.184;2023-04-21T02:53:04;98468.09;;;7.30;100.00
50123;BME280;36021;48.670;6.184;2023-04-21T02:55:30;98482.41;;;7.22;100.00
50123;BME280;36021;48.670;6.184;2023-04-21T02:57:56;98476.38;;;7.25;100.00
50123;BME280;36021;48.670;6.184;2023-04-21T03:00:24;98480.28;;;7.14;100.00
50123;BME280;36021;48.670;6.184;2023-04-21T03:02:50;98476.38;;;7.25;100.00
50123;BME280;36021;48.670;6.184;2023-04-21T03:05:17;98472.53;;;7.26;100.00
50123;BME280;36021;48.670;6.184;2023-04-21T03:07:46;98481.53;;;7.26;100.00
50123;BME280;36021;48.670;6.184;2023-04-21T03:10:12;98484.34;;;7.21;100.00
50123;BME280;36021;48.670;6.184;2023-04-21T03:12:37;98478.03;;;7.21;100.00
50123;BME280;36021;48.670;6.184;2023-04-21T03:15:03;98489.72;;;7.31;100.00
50123;BME280;36021;48.670;6.184;2023-04-21T03:17:29;98477.69;;;7.32;100.00
50123;BME280;36021;48.670;6.184;2023-04-21T03:19:55;98480.94;;;7.34;100.00
50123;BME280;36021;48.670;6.184;2023-04-21T03:22:22;98482.81;;;7.39;100.00
50123;BME280;36021;48.670;6.184;2023-04-21T03:24:48;98483.63;;;7.40;100.00
50123;BME280;36021;48.670;6.184;2023-04-21T03:27:13;98481.31;;;7.23;100.00
50123;BME280;36021;48.670;6.184;2023-04-21T03:29:39;98479.94;;;7.20;100.00
50123;BME280;36021;48.670;6.184;2023-04-21T03:32:05;98484.25;;;7.31;100.00
50123;BME280;36021;48.670;6.184;2023-04-21T03:34:30;98485.03;;;7.37;100.00
50123;BME280;36021;48.670;6.184;2023-04-21T03:36:58;98485.84;;;7.38;100.00
50123;BME280;36021;48.670;6.184;2023-04-21T03:39:23;98480.09;;;7.39;100.00
50123;BME280;36021;48.670;6.184;2023-04-21T03:41:50;98485.25;;;7.41;100.00
50123;BME280;36021;48.670;6.184;2023-04-21T03:44:17;98478.78;;;7.26;100.00
50123;BME280;36021;48.670;6.184;2023-04-21T03:46:43;98460.50;;;7.22;100.00
50123;BME280;36021;48.670;6.184;2023-04-21T03:49:10;98470.88;;;7.25;100.00
50123;BME280;36021;48.670;6.184;2023-04-21T03:51:36;98468.97;;;7.25;100.00
50123;BME280;36021;48.670;6.184;2023-04-21T03:54:01;98471.13;;;7.28;100.00
50123;BME280;36021;48.670;6.184;2023-04-21T03:56:27;98472.78;;;7.24;100.00
50123;BME280;36021;48.670;6.184;2023-04-21T03:58:53;98465.56;;;7.05;100.00
50123;BME280;36021;48.670;6.184;2023-04-21T04:01:18;98472.19;;;6.99;100.00
50123;BME280;36021;48.670;6.184;2023-04-21T04:03:45;98471.84;;;7.05;100.00
50123;BME280;36021;48.670;6.184;2023-04-21T04:06:10;98482.06;;;6.95;100.00
50123;BME280;36021;48.670;6.184;2023-04-21T04:08:37;98476.00;;;6.98;100.00
50123;BME280;36021;48.670;6.184;2023-04-21T04:11:03;98482.13;;;6.85;100.00
50123;BME280;36021;48.670;6.184;2023-04-21T04:13:28;98480.78;;;6.82;100.00
50123;BME280;36021;48.670;6.184;2023-04-21T04:15:54;98479.38;;;6.85;100.00
50123;BME280;36021;48.670;6.184;2023-04-21T04:18:20;98482.50;;;6.73;100.00
50123;BME280;36021;48.670;6.184;2023-04-21T04:20:46;98478.22;;;6.52;100.00
50123;BME280;36021;48.670;6.184;2023-04-21T04:23:11;98480.69;;;6.48;100.00
50123;BME280;36021;48.670;6.184;2023-04-21T04:25:39;98476.34;;;6.47;100.00
50123;BME280;36021;48.670;6.184;2023-04-21T04:28:04;98475.22;;;6.53;100.00
50123;BME280;36021;48.670;6.184;2023-04-21T04:30:32;98481.78;;;6.52;100.00
50123;BME280;36021;48.670;6.184;2023-04-21T04:32:58;98489.53;;;6.35;100.00
50123;BME280;36021;48.670;6.184;2023-04-21T04:35:24;98478.00;;;6.38;100.00
50123;BME280;36021;48.670;6.184;2023-04-21T04:37:51;98485.91;;;6.45;100.00
50123;BME280;36021;48.670;6.184;2023-04-21T04:40:18;98490.34;;;6.36;100.00
50123;BME280;36021;48.670;6.184;2023-04-21T04:42:44;98477.69;;;6.45;100.00
50123;BME280;36021;48.670;6.184;2023-04-21T04:45:11;98484.50;;;6.52;100.00
50123;BME280;36021;48.670;6.184;2023-04-21T04:47:39;98487.50;;;6.56;100.00
50123;BME280;36021;48.670;6.184;2023-04-21T04:50:05;98483.63;;;6.62;100.00
50123;BME280;36021;48.670;6.184;2023-04-21T04:52:31;98486.41;;;6.57;100.00
50123;BME280;36021;48.670;6.184;2023-04-21T04:54:57;98485.09;;;6.49;100.00
50123;BME280;36021;48.670;6.184;2023-04-21T04:57:23;98493.28;;;6.54;100.00
50123;BME280;36021;48.670;6.184;2023-04-21T04:59:53;98487.50;;;6.61;100.00
50123;BME280;36021;48.670;6.184;2023-04-21T05:02:20;98489.13;;;6.62;100.00
50123;BME280;36021;48.670;6.184;2023-04-21T05:04:50;98484.47;;;6.62;100.00
50123;BME280;36021;48.670;6.184;2023-04-21T05:07:16;98484.19;;;6.64;100.00
50123;BME280;36021;48.670;6.184;2023-04-21T05:09:41;98490.72;;;6.68;100.00
50123;BME280;36021;48.670;6.184;2023-04-21T05:12:07;98491.28;;;6.70;100.00
50123;BME280;36021;48.670;6.184;2023-04-21T05:14:33;98486.88;;;6.69;100.00
50123;BME280;36021;48.670;6.184;2023-04-21T05:16:58;98492.34;;;6.74;100.00
50123;BME280;36021;48.670;6.184;2023-04-21T05:19:24;98498.88;;;6.78;100.00
50123;BME280;36021;48.670;6.184;2023-04-21T05:21:50;98501.66;;;6.73;100.00
50123;BME280;36021;48.670;6.184;2023-04-21T05:24:16;98504.88;;;6.85;100.00
50123;BME280;36021;48.670;6.184;2023-04-21T05:26:47;98500.97;;;6.96;100.00
50123;BME280;36021;48.670;6.184;2023-04-21T05:29:13;98510.53;;;6.99;100.00
50123;BME280;36021;48.670;6.184;2023-04-21T05:31:38;98508.09;;;6.92;100.00
50123;BME280;36021;48.670;6.184;2023-04-21T05:34:04;98505.63;;;6.91;100.00
50123;BME280;36021;48.670;6.184;2023-04-21T05:36:30;98514.72;;;6.86;100.00
50123;BME280;36021;48.670;6.184;2023-04-21T05:38:56;98512.00;;;6.86;100.00
50123;BME280;36021;48.670;6.184;2023-04-21T05:41:22;98515.28;;;6.83;100.00
50123;BME280;36021;48.670;6.184;2023-04-21T05:43:48;98515.25;;;6.88;100.00
50123;BME280;36021;48.670;6.184;2023-04-21T05:46:14;98525.22;;;6.74;100.00
50123;BME280;36021;48.670;6.184;2023-04-21T05:48:39;98531.16;;;6.81;100.00
50123;BME280;36021;48.670;6.184;2023-04-21T05:51:09;98529.50;;;6.90;100.00
50123;BME280;36021;48.670;6.184;2023-04-21T05:53:39;98523.41;;;6.98;100.00
50123;BME280;36021;48.670;6.184;2023-04-21T05:56:07;98515.06;;;7.13;100.00
50123;BME280;36021;48.670;6.184;2023-04-21T05:58:32;98519.97;;;7.21;100.00
50123;BME280;36021;48.670;6.184;2023-04-21T06:00:58;98521.56;;;7.27;100.00
50123;BME280;36021;48.670;6.184;2023-04-21T06:03:24;98515.88;;;7.19;100.00
50123;BME280;36021;48.670;6.184;2023-04-21T06:05:53;98522.09;;;7.29;100.00
50123;BME280;36021;48.670;6.184;2023-04-21T06:08:19;98514.31;;;7.42;100.00
50123;BME280;36021;48.670;6.184;2023-04-21T06:10:47;98513.69;;;7.50;100.00
50123;BME280;36021;48.670;6.184;2023-04-21T06:13:12;98504.94;;;7.48;100.00
50123;BME280;36021;48.670;6.184;2023-04-21T06:15:38;98504.88;;;7.53;100.00
50123;BME280;36021;48.670;6.184;2023-04-21T06:18:04;98511.44;;;7.57;100.00
50123;BME280;36021;48.670;6.184;2023-04-21T06:20:30;98511.34;;;7.67;100.00
50123;BME280;36021;48.670;6.184;2023-04-21T06:22:56;98510.75;;;7.75;100.00
50123;BME280;36021;48.670;6.184;2023-04-21T06:25:21;98504.34;;;7.56;100.00
50123;BME280;36021;48.670;6.184;2023-04-21T06:27:47;98507.41;;;7.49;100.00
50123;BME280;36021;48.670;6.184;2023-04-21T06:30:13;98510.00;;;7.36;100.00
50123;BME280;36021;48.670;6.184;2023-04-21T06:32:39;98521.78;;;7.36;100.00
50123;BME280;36021;48.670;6.184;2023-04-21T06:35:05;98518.28;;;7.25;100.00
50123;BME280;36021;48.670;6.184;2023-04-21T06:37:31;98525.94;;;7.28;100.00
50123;BME280;36021;48.670;6.184;2023-04-21T06:39:56;98520.47;;;7.28;100.00
50123;BME280;36021;48.670;6.184;2023-04-21T06:42:22;98509.94;;;7.41;100.00
50123;BME280;36021;48.670;6.184;2023-04-21T06:44:49;98506.63;;;7.44;100.00
50123;BME280;36021;48.670;6.184;2023-04-21T06:47:15;98507.09;;;7.51;100.00
50123;BME280;36021;48.670;6.184;2023-04-21T06:49:42;98502.44;;;7.51;100.00
50123;BME280;36021;48.670;6.184;2023-04-21T06:52:08;98502.38;;;7.56;100.00
50123;BME280;36021;48.670;6.184;2023-04-21T06:54:35;98503.09;;;7.38;100.00
50123;BME280;36021;48.670;6.184;2023-04-21T06:57:00;98495.81;;;7.23;100.00
50123;BME280;36021;48.670;6.184;2023-04-21T06:59:27;98498.53;;;7.28;100.00
50123;BME280;36021;48.670;6.184;2023-04-21T07:01:54;98487.97;;;7.46;100.00
50123;BME280;36021;48.670;6.184;2023-04-21T07:04:21;98499.47;;;7.48;100.00
50123;BME280;36021;48.670;6.184;2023-04-21T07:06:46;98483.53;;;7.50;100.00
50123;BME280;36021;48.670;6.184;2023-04-21T07:09:13;98480.66;;;7.65;100.00
50123;BME280;36021;48.670;6.184;2023-04-21T07:11:39;98483.06;;;7.71;100.00
50123;BME280;36021;48.670;6.184;2023-04-21T07:14:05;98485.38;;;7.88;100.00
50123;BME280;36021;48.670;6.184;2023-04-21T07:16:31;98483.53;;;8.02;100.00
50123;BME280;36021;48.670;6.184;2023-04-21T07:18:57;98472.94;;;8.19;100.00
50123;BME280;36021;48.670;6.184;2023-04-21T07:21:23;98455.50;;;8.34;100.00
50123;BME280;36021;48.670;6.184;2023-04-21T07:23:48;98453.13;;;8.46;100.00
50123;BME280;36021;48.670;6.184;2023-04-21T07:26:16;98448.50;;;8.42;100.00
50123;BME280;36021;48.670;6.184;2023-04-21T07:28:42;98450.53;;;8.55;100.00
50123;BME280;36021;48.670;6.184;2023-04-21T07:31:08;98452.09;;;8.61;100.00
50123;BME280;36021;48.670;6.184;2023-04-21T07:33:33;98453.22;;;8.60;100.00
50123;BME280;36021;48.670;6.184;2023-04-21T07:35:59;98449.28;;;8.66;100.00
50123;BME280;36021;48.670;6.184;2023-04-21T07:38:25;98448.59;;;8.74;100.00
50123;BME280;36021;48.670;6.184;2023-04-21T07:40:52;98442.44;;;8.82;100.00
50123;BME280;36021;48.670;6.184;2023-04-21T07:43:18;98447.47;;;8.94;100.00
50123;BME280;36021;48.670;6.184;2023-04-21T07:45:44;98442.59;;;9.09;100.00
50123;BME280;36021;48.670;6.184;2023-04-21T07:48:10;98443.53;;;9.18;100.00
50123;BME280;36021;48.670;6.184;2023-04-21T07:50:38;98438.47;;;9.25;100.00
50123;BME280;36021;48.670;6.184;2023-04-21T07:53:04;98441.56;;;9.37;100.00
50123;BME280;36021;48.670;6.184;2023-04-21T07:55:30;98436.69;;;9.48;100.00
50123;BME280;36021;48.670;6.184;2023-04-21T07:57:55;98440.66;;;9.56;100.00
50123;BME280;36021;48.670;6.184;2023-04-21T08:00:23;98436.00;;;9.24;100.00
50123;BME280;36021;48.670;6.184;2023-04-21T08:02:49;98424.28;;;9.18;100.00
50123;BME280;36021;48.670;6.184;2023-04-21T08:05:16;98433.91;;;9.34;100.00
50123;BME280;36021;48.670;6.184;2023-04-21T08:07:42;98410.81;;;9.35;100.00
50123;BME280;36021;48.670;6.184;2023-04-21T08:10:09;98416.13;;;9.46;100.00
50123;BME280;36021;48.670;6.184;2023-04-21T08:12:35;98415.19;;;9.50;100.00
50123;BME280;36021;48.670;6.184;2023-04-21T08:15:01;98415.09;;;9.41;100.00
50123;BME280;36021;48.670;6.184;2023-04-21T08:17:30;98419.38;;;9.48;100.00
50123;BME280;36021;48.670;6.184;2023-04-21T08:19:56;98418.34;;;9.43;100.00
50123;BME280;36021;48.670;6.184;2023-04-21T08:22:22;98417.97;;;9.64;100.00
50123;BME280;36021;48.670;6.184;2023-04-21T08:24:48;98421.78;;;9.81;100.00
50123;BME280;36021;48.670;6.184;2023-04-21T08:27:15;98415.56;;;9.89;100.00
50123;BME280;36021;48.670;6.184;2023-04-21T08:29:40;98412.69;;;10.08;100.00
50123;BME280;36021;48.670;6.184;2023-04-21T08:32:06;98407.72;;;10.24;100.00
50123;BME280;36021;48.670;6.184;2023-04-21T08:34:33;98408.84;;;10.36;100.00
50123;BME280;36021;48.670;6.184;2023-04-21T08:36:58;98410.56;;;10.46;100.00
50123;BME280;36021;48.670;6.184;2023-04-21T08:39:24;98407.19;;;10.35;100.00
50123;BME280;36021;48.670;6.184;2023-04-21T08:41:51;98409.31;;;10.38;100.00
50123;BME280;36021;48.670;6.184;2023-04-21T08:44:19;98407.38;;;10.53;100.00
50123;BME280;36021;48.670;6.184;2023-04-21T08:46:48;98404.16;;;10.73;100.00
50123;BME280;36021;48.670;6.184;2023-04-21T08:49:18;98393.38;;;10.85;100.00
50123;BME280;36021;48.670;6.184;2023-04-21T08:51:46;98397.22;;;10.97;100.00
50123;BME280;36021;48.670;6.184;2023-04-21T08:54:12;98402.34;;;11.13;100.00
50123;BME280;36021;48.670;6.184;2023-04-21T08:56:39;98396.66;;;11.09;100.00
50123;BME280;36021;48.670;6.184;2023-04-21T08:59:06;98386.38;;;11.23;100.00
50123;BME280;36021;48.670;6.184;2023-04-21T09:02:14;98387.34;;;11.49;100.00
50123;BME280;36021;48.670;6.184;2023-04-21T09:04:47;98389.44;;;11.75;100.00
50123;BME280;36021;48.670;6.184;2023-04-21T09:07:32;98393.16;;;12.18;100.00
50123;BME280;36021;48.670;6.184;2023-04-21T09:09:59;98395.25;;;12.69;100.00
50123;BME280;36021;48.670;6.184;2023-04-21T09:12:26;98396.38;;;12.77;100.00
50123;BME280;36021;48.670;6.184;2023-04-21T09:14:52;98394.91;;;12.88;100.00
50123;BME280;36021;48.670;6.184;2023-04-21T09:17:21;98393.75;;;13.32;100.00
50123;BME280;36021;48.670;6.184;2023-04-21T09:19:47;98375.63;;;13.60;100.00
50123;BME280;36021;48.670;6.184;2023-04-21T09:22:15;98380.22;;;13.94;100.00
50123;BME280;36021;48.670;6.184;2023-04-21T09:24:48;98375.75;;;14.10;100.00
50123;BME280;36021;48.670;6.184;2023-04-21T09:27:15;98369.94;;;14.32;100.00
50123;BME280;36021;48.670;6.184;2023-04-21T09:29:47;98357.59;;;14.50;100.00
50123;BME280;36021;48.670;6.184;2023-04-21T09:32:19;98360.56;;;14.66;100.00
50123;BME280;36021;48.670;6.184;2023-04-21T09:34:45;98364.25;;;14.79;100.00
50123;BME280;36021;48.670;6.184;2023-04-21T09:37:12;98365.78;;;15.09;100.00
50123;BME280;36021;48.670;6.184;2023-04-21T09:39:43;98368.09;;;15.07;100.00
50123;BME280;36021;48.670;6.184;2023-04-21T09:42:09;98378.09;;;15.20;100.00
50123;BME280;36021;48.670;6.184;2023-04-21T09:44:37;98383.19;;;15.18;100.00
50123;BME280;36021;48.670;6.184;2023-04-21T09:47:03;98379.38;;;15.23;100.00
50123;BME280;36021;48.670;6.184;2023-04-21T09:49:34;98382.16;;;15.02;100.00
50123;BME280;36021;48.670;6.184;2023-04-21T09:52:01;98388.72;;;15.18;100.00
50123;BME280;36021;48.670;6.184;2023-04-21T09:54:29;98377.88;;;15.25;100.00
50123;BME280;36021;48.670;6.184;2023-04-21T09:56:58;98370.81;;;15.48;100.00
50123;BME280;36021;48.670;6.184;2023-04-21T09:59:45;98362.81;;;15.47;100.00
50123;BME280;36021;48.670;6.184;2023-04-21T10:02:12;98370.72;;;15.24;100.00
50123;BME280;36021;48.670;6.184;2023-04-21T10:04:40;98372.88;;;15.19;100.00
50123;BME280;36021;48.670;6.184;2023-04-21T10:07:08;98361.63;;;15.15;100.00
50123;BME280;36021;48.670;6.184;2023-04-21T10:09:42;98368.63;;;15.21;100.00
50123;BME280;36021;48.670;6.184;2023-04-21T10:12:10;98376.13;;;15.21;100.00
50123;BME280;36021;48.670;6.184;2023-04-21T10:14:37;98380.88;;;15.20;100.00
50123;BME280;36021;48.670;6.184;2023-04-21T10:17:05;98382.66;;;14.63;100.00
50123;BME280;36021;48.670;6.184;2023-04-21T10:19:47;98380.28;;;14.52;100.00
50123;BME280;36021;48.670;6.184;2023-04-21T10:22:14;98382.16;;;14.31;100.00
50123;BME280;36021;48.670;6.184;2023-04-21T10:24:54;98378.41;;;14.36;100.00
50123;BME280;36021;48.670;6.184;2023-04-21T10:27:39;98378.63;;;14.22;100.00
50123;BME280;36021;48.670;6.184;2023-04-21T10:32:44;98385.13;;;13.97;100.00
50123;BME280;36021;48.670;6.184;2023-04-21T10:35:16;98380.56;;;13.92;100.00
50123;BME280;36021;48.670;6.184;2023-04-21T10:37:48;98391.03;;;13.87;100.00
50123;BME280;36021;48.670;6.184;2023-04-21T10:42:55;98399.47;;;13.27;100.00
50123;BME280;36021;48.670;6.184;2023-04-21T10:45:24;98397.03;;;13.34;100.00
50123;BME280;36021;48.670;6.184;2023-04-21T10:47:51;98395.56;;;13.19;100.00
50123;BME280;36021;48.670;6.184;2023-04-21T10:50:26;98398.16;;;13.07;100.00
50123;BME280;36021;48.670;6.184;2023-04-21T10:52:57;98404.38;;;13.21;100.00
50123;BME280;36021;48.670;6.184;2023-04-21T10:55:26;98382.72;;;13.23;100.00
50123;BME280;36021;48.670;6.184;2023-04-21T10:57:54;98375.06;;;13.20;100.00
50123;BME280;36021;48.670;6.184;2023-04-21T11:00:23;98356.13;;;13.48;100.00
50123;BME280;36021;48.670;6.184;2023-04-21T11:02:59;98344.09;;;13.90;100.00
50123;BME280;36021;48.670;6.184;2023-04-21T11:05:30;98352.16;;;14.33;100.00
50123;BME280;36021;48.670;6.184;2023-04-21T11:08:07;98357.41;;;14.97;100.00
50123;BME280;36021;48.670;6.184;2023-04-21T11:10:55;98343.06;;;15.28;100.00
50123;BME280;36021;48.670;6.184;2023-04-21T11:13:26;98343.34;;;15.47;100.00
50123;BME280;36021;48.670;6.184;2023-04-21T11:16:05;98343.34;;;15.80;100.00
50123;BME280;36021;48.670;6.184;2023-04-21T11:21:11;98329.91;;;16.06;100.00
50123;BME280;36021;48.670;6.184;2023-04-21T11:23:47;98336.84;;;16.24;100.00
50123;BME280;36021;48.670;6.184;2023-04-21T11:26:13;98334.97;;;16.64;100.00
50123;BME280;36021;48.670;6.184;2023-04-21T11:28:40;98339.34;;;16.78;100.00
50123;BME280;36021;48.670;6.184;2023-04-21T11:31:06;98344.16;;;16.93;100.00
50123;BME280;36021;48.670;6.184;2023-04-21T11:33:37;98337.97;;;16.59;100.00
50123;BME280;36021;48.670;6.184;2023-04-21T11:36:06;98333.56;;;16.46;100.00
50123;BME280;36021;48.670;6.184;2023-04-21T11:38:38;98330.56;;;16.39;100.00
50123;BME280;36021;48.670;6.184;2023-04-21T11:41:04;98331.06;;;16.29;100.00
50123;BME280;36021;48.670;6.184;2023-04-21T11:43:33;98336.00;;;16.48;100.00
50123;BME280;36021;48.670;6.184;2023-04-21T11:48:44;98326.59;;;16.52;100.00
50123;BME280;36021;48.670;6.184;2023-04-21T11:51:13;98319.84;;;16.78;100.00
50123;BME280;36021;48.670;6.184;2023-04-21T11:53:39;98315.03;;;17.18;100.00
50123;BME280;36021;48.670;6.184;2023-04-21T11:56:06;98320.50;;;16.87;100.00
50123;BME280;36021;48.670;6.184;2023-04-21T11:58:33;98321.34;;;17.58;100.00
50123;BME280;36021;48.670;6.184;2023-04-21T12:01:06;98314.44;;;17.84;100.00
50123;BME280;36021;48.670;6.184;2023-04-21T12:03:32;98316.66;;;18.25;100.00
50123;BME280;36021;48.670;6.184;2023-04-21T12:05:57;98316.94;;;18.90;100.00
50123;BME280;36021;48.670;6.184;2023-04-21T12:08:28;98313.78;;;19.71;100.00
50123;BME280;36021;48.670;6.184;2023-04-21T12:10:53;98310.03;;;19.41;100.00
50123;BME280;36021;48.670;6.184;2023-04-21T12:13:23;98304.47;;;21.58;100.00
50123;BME280;36021;48.670;6.184;2023-04-21T12:15:48;98297.56;;;22.37;100.00
50123;BME280;36021;48.670;6.184;2023-04-21T12:18:14;98289.41;;;24.08;100.00
50123;BME280;36021;48.670;6.184;2023-04-21T12:20:51;98306.63;;;24.80;100.00
50123;BME280;36021;48.670;6.184;2023-04-21T12:23:17;98301.09;;;24.13;100.00
50123;BME280;36021;48.670;6.184;2023-04-21T12:25:45;98298.19;;;24.73;98.78
50123;BME280;36021;48.670;6.184;2023-04-21T12:28:14;98293.84;;;24.16;100.00
50123;BME280;36021;48.670;6.184;2023-04-21T12:30:41;98304.84;;;22.41;100.00
50123;BME280;36021;48.670;6.184;2023-04-21T12:33:07;98299.34;;;21.67;100.00
50123;BME280;36021;48.670;6.184;2023-04-21T12:35:32;98304.41;;;20.32;100.00
50123;BME280;36021;48.670;6.184;2023-04-21T12:37:58;98300.84;;;20.32;100.00
50123;BME280;36021;48.670;6.184;2023-04-21T12:40:24;98291.19;;;21.15;100.00
50123;BME280;36021;48.670;6.184;2023-04-21T12:42:50;98283.81;;;21.77;100.00
50123;BME280;36021;48.670;6.184;2023-04-21T12:45:15;98285.66;;;22.03;100.00
50123;BME280;36021;48.670;6.184;2023-04-21T12:47:41;98281.88;;;22.94;100.00
50123;BME280;36021;48.670;6.184;2023-04-21T12:50:09;98278.88;;;24.72;100.00
50123;BME280;36021;48.670;6.184;2023-04-21T12:52:35;98275.75;;;26.05;89.50
50123;BME280;36021;48.670;6.184;2023-04-21T12:55:01;98278.41;;;27.68;74.20
50123;BME280;36021;48.670;6.184;2023-04-21T12:57:28;98285.69;;;27.96;73.66
50123;BME280;36021;48.670;6.184;2023-04-21T12:59:54;98281.13;;;28.29;68.67
50123;BME280;36021;48.670;6.184;2023-04-21T13:02:20;98280.63;;;29.20;63.52
50123;BME280;36021;48.670;6.184;2023-04-21T13:04:45;98275.47;;;29.90;54.29
50123;BME280;36021;48.670;6.184;2023-04-21T13:07:11;98276.63;;;29.57;52.99
50123;BME280;36021;48.670;6.184;2023-04-21T13:09:37;98265.56;;;29.78;51.02